createdAt,value
2023-04-18T00:00:36.808Z,23.63
2023-04-18T00:03:04.666Z,22.88
2023-04-18T00:05:31.425Z,22.92
2023-04-18T00:07:57.817Z,23.00
2023-04-18T00:10:24.265Z,21.17
2023-04-18T00:12:51.366Z,22.02
2023-04-18T00:15:18.371Z,21.75
2023-04-18T00:17:44.775Z,20.60
2023-04-18T00:20:12.732Z,22.98
2023-04-18T00:22:46.662Z,19.88
2023-04-18T00:25:13.179Z,21.67
2023-04-18T00:27:39.584Z,19.00
2023-04-18T00:30:07.127Z,19.35
2023-04-18T00:32:33.560Z,19.85
2023-04-18T00:34:59.970Z,19.77
2023-04-18T00:37:27.013Z,22.33
2023-04-18T00:39:53.895Z,20.13
2023-04-18T00:42:25.393Z,20.08
2023-04-18T00:44:51.791Z,19.98
2023-04-18T00:47:18.209Z,18.65
2023-04-18T00:49:45.470Z,19.05
2023-04-18T00:52:12.465Z,19.02
2023-04-18T00:54:40.616Z,20.42
2023-04-18T00:57:07.834Z,18.35
2023-04-18T00:59:35.421Z,24.63
2023-04-18T01:02:05.207Z,19.63
2023-04-18T01:04:34.553Z,18.02
2023-04-18T01:07:02.111Z,19.77
2023-04-18T01:09:28.663Z,21.38
2023-04-18T01:11:55.048Z,22.35
2023-04-18T01:14:21.648Z,16.50
2023-04-18T01:16:50.986Z,17.60
2023-04-18T01:19:17.453Z,17.38
2023-04-18T01:21:44.114Z,17.23
2023-04-18T01:24:12.744Z,16.30
2023-04-18T01:26:40.050Z,17.48
2023-04-18T01:29:06.946Z,14.68
2023-04-18T01:31:37.542Z,17.58
2023-04-18T01:34:05.314Z,16.30
2023-04-18T01:36:32.597Z,16.85
2023-04-18T01:38:59.696Z,16.50
2023-04-18T01:41:28.980Z,16.02
2023-04-18T01:43:55.360Z,16.75
2023-04-18T01:46:21.766Z,14.25
2023-04-18T01:48:48.145Z,15.75
2023-04-18T01:51:14.553Z,17.15
2023-04-18T01:53:41.760Z,15.00
2023-04-18T01:56:10.093Z,15.32
2023-04-18T01:58:36.972Z,15.32
2023-04-18T02:01:03.902Z,16.40
2023-04-18T02:03:30.489Z,15.38
2023-04-18T02:05:57.100Z,17.42
2023-04-18T02:08:23.486Z,18.40
2023-04-18T02:10:49.825Z,14.95
2023-04-18T02:13:16.205Z,16.40
2023-04-18T02:15:45.787Z,17.85
2023-04-18T02:18:12.250Z,16.50
2023-04-18T02:20:39.158Z,13.85
2023-04-18T02:23:05.633Z,14.70
2023-04-18T02:25:31.990Z,18.42
2023-04-18T02:27:58.356Z,14.30
2023-04-18T02:30:25.668Z,14.80
2023-04-18T02:32:53.796Z,15.15
2023-04-18T02:35:21.030Z,14.48
2023-04-18T02:37:47.474Z,15.85
2023-04-18T02:40:14.074Z,16.30
2023-04-18T02:42:40.569Z,15.68
2023-04-18T02:45:07.815Z,18.35
2023-04-18T02:47:47.027Z,16.33
2023-04-18T02:50:17.999Z,15.77
2023-04-18T02:52:44.335Z,17.85
2023-04-18T02:55:10.894Z,17.35
2023-04-18T02:57:37.252Z,16.13
2023-04-18T03:00:04.597Z,15.18
2023-04-18T03:02:31.116Z,16.42
2023-04-18T03:04:57.554Z,18.45
2023-04-18T03:07:24.010Z,16.98
2023-04-18T03:09:50.530Z,16.77
2023-04-18T03:12:16.883Z,18.20
2023-04-18T03:14:44.475Z,16.55
2023-04-18T03:17:11.158Z,16.95
2023-04-18T03:19:37.502Z,18.20
2023-04-18T03:22:03.846Z,17.98
2023-04-18T03:24:30.196Z,16.20
2023-04-18T03:26:56.694Z,18.52
2023-04-18T03:29:23.162Z,16.10
2023-04-18T03:31:49.632Z,19.23
2023-04-18T03:34:16.055Z,16.83
2023-04-18T03:36:42.612Z,17.77
2023-04-18T03:39:09.082Z,18.02
2023-04-18T03:41:35.433Z,14.50
2023-04-18T03:44:01.740Z,18.83
2023-04-18T03:46:28.287Z,17.00
2023-04-18T03:48:54.650Z,15.45
2023-04-18T03:51:21.038Z,14.55
2023-04-18T03:53:47.396Z,20.60
2023-04-18T03:56:13.840Z,18.85
2023-04-18T03:58:40.283Z,17.02
2023-04-18T04:01:07.636Z,18.73
2023-04-18T04:03:34.074Z,18.45
2023-04-18T04:06:00.888Z,17.27
2023-04-18T04:08:28.318Z,17.42
2023-04-18T04:10:54.844Z,21.83
2023-04-18T04:13:21.148Z,16.77
2023-04-18T04:15:47.484Z,21.48
2023-04-18T04:18:13.808Z,18.02
2023-04-18T04:20:40.118Z,17.58
2023-04-18T04:23:06.983Z,19.80
2023-04-18T04:25:34.064Z,18.00
2023-04-18T04:28:01.421Z,15.02
2023-04-18T04:30:28.603Z,18.35
2023-04-18T04:32:55.124Z,19.02
2023-04-18T04:35:21.621Z,19.63
2023-04-18T04:37:48.263Z,19.85
2023-04-18T04:40:15.640Z,16.98
2023-04-18T04:42:42.260Z,18.50
2023-04-18T04:45:09.506Z,19.40
2023-04-18T04:47:36.622Z,19.77
2023-04-18T04:50:04.330Z,15.45
2023-04-18T04:52:32.629Z,20.50
2023-04-18T04:54:59.023Z,16.48
2023-04-18T04:57:25.560Z,20.50
2023-04-18T04:59:51.867Z,17.88
2023-04-18T05:02:18.321Z,17.92
2023-04-18T05:04:44.716Z,21.83
2023-04-18T05:07:11.099Z,20.27
2023-04-18T05:09:37.436Z,18.98
2023-04-18T05:12:04.385Z,21.00
2023-04-18T05:14:31.014Z,21.17
2023-04-18T05:16:57.473Z,17.75
2023-04-18T05:19:23.884Z,17.65
2023-04-18T05:21:50.183Z,20.27
2023-04-18T05:24:16.797Z,23.45
2023-04-18T05:26:43.445Z,19.48
2023-04-18T05:29:09.861Z,18.42
2023-04-18T05:31:36.348Z,17.83
2023-04-18T05:34:03.042Z,21.73
2023-04-18T05:36:29.488Z,19.10
2023-04-18T05:38:55.842Z,17.27
2023-04-18T05:41:22.874Z,19.38
2023-04-18T05:43:58.088Z,19.83
2023-04-18T05:46:31.706Z,20.02
2023-04-18T05:48:58.089Z,15.48
2023-04-18T05:51:24.503Z,17.48
2023-04-18T05:53:51.072Z,19.30
2023-04-18T05:56:17.450Z,17.40
2023-04-18T05:58:45.530Z,18.02
2023-04-18T06:01:14.179Z,19.40
2023-04-18T06:03:41.511Z,19.38
2023-04-18T06:06:08.362Z,22.27
2023-04-18T06:08:34.763Z,18.15
2023-04-18T06:11:01.132Z,18.77
2023-04-18T06:13:27.437Z,19.17
2023-04-18T06:15:54.031Z,19.70
2023-04-18T06:18:20.414Z,17.23
2023-04-18T06:20:46.805Z,17.67
2023-04-18T06:23:13.237Z,20.50
2023-04-18T06:25:41.569Z,16.92
2023-04-18T06:28:08.007Z,16.83
2023-04-18T06:30:34.662Z,18.35
2023-04-18T06:33:01.076Z,17.38
2023-04-18T06:35:30.746Z,15.15
2023-04-18T06:37:57.129Z,19.27
2023-04-18T06:40:23.452Z,21.17
2023-04-18T06:42:49.777Z,15.90
2023-04-18T06:45:16.242Z,18.23
2023-04-18T06:47:42.596Z,16.73
2023-04-18T06:50:09.554Z,16.10
2023-04-18T06:52:40.368Z,17.73
2023-04-18T06:55:08.961Z,16.10
2023-04-18T06:57:35.336Z,17.42
2023-04-18T07:00:01.768Z,17.58
2023-04-18T07:02:28.218Z,14.18
2023-04-18T07:04:54.757Z,20.17
2023-04-18T07:07:21.198Z,20.30
2023-04-18T07:09:48.461Z,16.33
2023-04-18T07:12:15.380Z,16.13
2023-04-18T07:14:42.022Z,17.98
2023-04-18T07:17:08.575Z,15.43
2023-04-18T07:19:35.024Z,15.60
2023-04-18T07:22:01.340Z,20.73
2023-04-18T07:24:27.748Z,16.02
2023-04-18T07:26:55.227Z,14.02
2023-04-18T07:29:21.676Z,16.17
2023-04-18T07:31:48.417Z,16.02
2023-04-18T07:34:15.322Z,14.90
2023-04-18T07:36:42.147Z,13.48
2023-04-18T07:39:08.606Z,14.15
2023-04-18T07:41:35.608Z,14.05
2023-04-18T07:44:02.718Z,16.00
2023-04-18T07:46:29.421Z,13.60
2023-04-18T07:48:56.026Z,13.27
2023-04-18T07:51:25.280Z,14.45
2023-04-18T07:53:51.740Z,13.38
2023-04-18T07:56:18.577Z,12.93
2023-04-18T07:58:44.971Z,13.35
2023-04-18T08:01:15.229Z,16.92
2023-04-18T08:03:41.788Z,11.07
2023-04-18T08:06:08.421Z,12.95
2023-04-18T08:08:34.729Z,12.70
2023-04-18T08:11:01.181Z,13.75
2023-04-18T08:13:27.637Z,11.13
2023-04-18T08:15:55.773Z,11.98
2023-04-18T08:18:23.122Z,12.55
2023-04-18T08:20:49.488Z,12.75
2023-04-18T08:23:15.950Z,12.45
2023-04-18T08:25:42.372Z,12.60
2023-04-18T08:28:08.830Z,11.82
2023-04-18T08:30:35.353Z,10.95
2023-04-18T08:33:02.246Z,12.77
2023-04-18T08:35:28.749Z,12.10
2023-04-18T08:37:55.241Z,11.35
2023-04-18T08:40:21.885Z,12.45
2023-04-18T08:42:49.411Z,10.90
2023-04-18T08:45:16.194Z,13.50
2023-04-18T08:47:42.974Z,11.43
2023-04-18T08:50:10.397Z,11.88
2023-04-18T08:55:05.688Z,12.10
2023-04-18T08:57:33.180Z,12.35
2023-04-18T09:02:38.971Z,11.25
2023-04-18T09:05:19.566Z,11.48
2023-04-18T09:07:47.437Z,9.80
2023-04-18T09:10:24.113Z,12.18
2023-04-18T09:12:50.806Z,11.75
2023-04-18T09:15:20.218Z,11.82
2023-04-18T09:17:53.294Z,11.35
2023-04-18T09:20:41.108Z,13.00
2023-04-18T09:23:10.764Z,10.65
2023-04-18T09:25:44.770Z,12.45
2023-04-18T09:31:15.319Z,10.63
2023-04-18T09:33:54.111Z,13.75
2023-04-18T09:36:24.771Z,11.50
2023-04-18T09:38:55.534Z,11.38
2023-04-18T09:41:23.343Z,9.93
2023-04-18T09:43:50.015Z,11.88
2023-04-18T09:46:17.764Z,9.15
2023-04-18T09:48:44.379Z,10.85
2023-04-18T09:51:14.978Z,11.18
2023-04-18T09:53:44.869Z,11.77
2023-04-18T09:56:27.954Z,11.95
2023-04-18T09:59:07.131Z,12.05
2023-04-18T10:01:34.033Z,10.90
2023-04-18T10:04:04.108Z,11.13
2023-04-18T10:06:33.861Z,10.25
2023-04-18T10:09:04.162Z,11.20
2023-04-18T10:11:31.689Z,11.13
2023-04-18T10:16:28.688Z,10.65
2023-04-18T10:21:21.933Z,11.98
2023-04-18T10:23:51.127Z,11.57
2023-04-18T10:26:17.515Z,14.45
2023-04-18T10:28:57.303Z,14.23
2023-04-18T10:31:28.614Z,11.50
2023-04-18T10:36:28.580Z,14.00
2023-04-18T10:39:25.494Z,11.27
2023-04-18T10:41:51.989Z,9.68
2023-04-18T10:44:21.777Z,8.95
2023-04-18T10:46:48.057Z,8.90
2023-04-18T10:49:21.908Z,11.25
2023-04-18T10:51:51.139Z,11.02
2023-04-18T10:54:21.141Z,10.65
2023-04-18T10:56:59.004Z,9.65
2023-04-18T10:59:26.975Z,10.13
2023-04-18T11:01:59.971Z,9.52
2023-04-18T11:04:26.572Z,10.18
2023-04-18T11:06:58.334Z,9.18
2023-04-18T11:09:24.960Z,10.55
2023-04-18T11:12:11.328Z,12.60
2023-04-18T11:14:46.319Z,12.50
2023-04-18T11:17:26.769Z,12.43
2023-04-18T11:20:01.300Z,10.93
2023-04-18T11:22:27.820Z,11.38
2023-04-18T11:24:59.014Z,11.13
2023-04-18T11:27:26.833Z,11.10
2023-04-18T11:29:54.517Z,12.75
2023-04-18T11:32:23.206Z,12.00
2023-04-18T11:34:55.881Z,12.80
2023-04-18T11:37:22.605Z,13.18
2023-04-18T11:39:51.929Z,11.18
2023-04-18T11:42:18.317Z,12.02
2023-04-18T11:44:49.156Z,11.23
2023-04-18T11:47:30.482Z,11.43
2023-04-18T11:50:01.785Z,15.07
2023-04-18T11:52:30.487Z,13.18
2023-04-18T11:55:14.952Z,13.82
2023-04-18T11:57:41.800Z,15.07
2023-04-18T12:00:10.658Z,12.50
2023-04-18T12:02:46.073Z,14.25
2023-04-18T12:05:24.162Z,15.50
2023-04-18T12:07:50.682Z,13.02
2023-04-18T12:10:19.963Z,14.00
2023-04-18T12:12:51.314Z,13.85
2023-04-18T12:15:18.407Z,13.27
2023-04-18T12:17:46.631Z,13.55
2023-04-18T12:20:13.426Z,14.85
2023-04-18T12:22:42.039Z,14.75
2023-04-18T12:25:24.217Z,14.75
2023-04-18T12:27:58.146Z,14.68
2023-04-18T12:30:36.013Z,15.65
2023-04-18T12:33:04.320Z,16.40
2023-04-18T12:35:31.881Z,15.13
2023-04-18T12:38:02.821Z,15.05
2023-04-18T12:40:30.129Z,15.38
2023-04-18T12:42:56.884Z,14.50
2023-04-18T12:45:24.041Z,15.85
2023-04-18T12:47:52.265Z,16.02
2023-04-18T12:50:21.818Z,16.13
2023-04-18T12:52:48.834Z,16.05
2023-04-18T12:55:15.761Z,18.73
2023-04-18T12:57:43.086Z,13.90
2023-04-18T13:00:12.806Z,15.10
2023-04-18T13:02:42.158Z,14.80
2023-04-18T13:05:10.890Z,14.73
2023-04-18T13:07:40.387Z,14.55
2023-04-18T13:10:08.863Z,15.18
2023-04-18T13:12:35.530Z,16.90
2023-04-18T13:15:02.053Z,16.08
2023-04-18T13:17:28.549Z,17.75
2023-04-18T13:19:54.905Z,15.57
2023-04-18T13:22:21.416Z,17.52
2023-04-18T13:24:48.376Z,17.65
2023-04-18T13:27:14.840Z,18.95
2023-04-18T13:29:43.088Z,18.50
2023-04-18T13:32:09.594Z,16.77
2023-04-18T13:34:42.325Z,19.88
2023-04-18T13:37:08.698Z,18.77
2023-04-18T13:39:35.043Z,16.55
2023-04-18T13:42:04.521Z,19.20
2023-04-18T13:44:31.500Z,21.63
2023-04-18T13:46:57.971Z,16.42
2023-04-18T13:49:24.441Z,15.73
2023-04-18T13:51:53.425Z,17.80
2023-04-18T13:54:20.079Z,19.77
2023-04-18T13:56:46.486Z,16.33
2023-04-18T13:59:13.102Z,18.17
2023-04-18T14:01:39.983Z,20.70
2023-04-18T14:04:06.780Z,16.58
2023-04-18T14:06:33.397Z,17.27
2023-04-18T14:08:59.757Z,17.75
2023-04-18T14:11:26.387Z,17.88
2023-04-18T14:13:52.760Z,15.00
2023-04-18T14:16:19.366Z,16.35
2023-04-18T14:18:46.167Z,16.23
2023-04-18T14:21:13.549Z,18.10
2023-04-18T14:23:39.886Z,19.17
2023-04-18T14:26:06.197Z,16.52
2023-04-18T14:28:32.590Z,19.00
2023-04-18T14:31:01.969Z,17.70
2023-04-18T14:33:29.238Z,17.52
2023-04-18T14:35:55.598Z,19.33
2023-04-18T14:38:21.985Z,18.40
2023-04-18T14:40:48.478Z,15.85
2023-04-18T14:43:14.857Z,20.35
2023-04-18T14:45:41.230Z,13.68
2023-04-18T14:48:10.215Z,15.38
2023-04-18T14:50:38.457Z,16.23
2023-04-18T14:53:05.981Z,14.95
2023-04-18T14:55:33.266Z,15.57
2023-04-18T14:58:00.143Z,14.43
2023-04-18T15:00:27.349Z,14.15
2023-04-18T15:02:53.949Z,14.95
2023-04-18T15:05:23.601Z,17.45
2023-04-18T15:07:51.865Z,14.63
2023-04-18T15:10:19.608Z,15.23
2023-04-18T15:12:48.958Z,13.90
2023-04-18T15:15:15.319Z,17.05
2023-04-18T15:17:42.057Z,14.27
2023-04-18T15:20:09.377Z,15.13
2023-04-18T15:22:36.030Z,14.82
2023-04-18T15:25:03.924Z,15.40
2023-04-18T15:27:30.419Z,13.57
2023-04-18T15:29:56.865Z,16.23
2023-04-18T15:32:23.408Z,13.02
2023-04-18T15:34:49.927Z,14.65
2023-04-18T15:37:16.328Z,14.32
2023-04-18T15:39:42.653Z,15.02
2023-04-18T15:42:09.036Z,14.52
2023-04-18T15:44:35.592Z,16.85
2023-04-18T15:47:02.055Z,13.98
2023-04-18T15:49:28.794Z,14.07
2023-04-18T15:51:56.651Z,17.27
2023-04-18T15:54:23.075Z,16.52
2023-04-18T15:56:49.506Z,15.73
2023-04-18T15:59:15.819Z,15.07
2023-04-18T16:01:45.236Z,14.10
2023-04-18T16:04:12.557Z,15.55
2023-04-18T16:06:39.266Z,13.43
2023-04-18T16:09:06.858Z,12.95
2023-04-18T16:11:33.225Z,13.60
2023-04-18T16:13:59.536Z,12.32
2023-04-18T16:16:26.546Z,15.32
2023-04-18T16:21:19.330Z,12.45
2023-04-18T16:23:45.821Z,13.60
2023-04-18T16:26:12.201Z,12.18
2023-04-18T16:28:38.748Z,15.13
2023-04-18T16:31:06.357Z,12.60
2023-04-18T16:33:32.966Z,14.00
2023-04-18T16:36:02.929Z,24.75
2023-04-18T16:38:29.488Z,16.90
2023-04-18T16:40:57.342Z,13.13
2023-04-18T16:43:24.191Z,15.90
2023-04-18T16:45:50.614Z,13.60
2023-04-18T16:48:17.061Z,13.75
2023-04-18T16:50:45.588Z,14.32
2023-04-18T16:53:12.017Z,15.82
2023-04-18T16:55:38.325Z,13.88
2023-04-18T16:58:04.761Z,13.75
2023-04-18T17:00:31.269Z,12.98
2023-04-18T17:02:58.244Z,14.50
2023-04-18T17:05:25.851Z,15.65
2023-04-18T17:07:52.509Z,14.63
2023-04-18T17:10:19.318Z,14.13
2023-04-18T17:12:48.972Z,15.15
2023-04-18T17:15:19.148Z,13.88
2023-04-18T17:17:45.842Z,14.00
2023-04-18T17:20:12.620Z,16.27
2023-04-18T17:22:39.089Z,14.15
2023-04-18T17:25:05.970Z,14.95
2023-04-18T17:27:32.489Z,17.10
2023-04-18T17:29:58.955Z,14.43
2023-04-18T17:32:25.428Z,14.25
2023-04-18T17:34:52.105Z,13.85
2023-04-18T17:37:19.890Z,15.50
2023-04-18T17:39:46.199Z,15.02
2023-04-18T17:42:12.796Z,15.95
2023-04-18T17:44:39.785Z,15.93
2023-04-18T17:47:06.753Z,14.43
2023-04-18T17:49:35.990Z,13.75
2023-04-18T17:52:03.389Z,15.05
2023-04-18T17:54:30.273Z,18.52
2023-04-18T17:56:57.689Z,15.93
2023-04-18T17:59:24.036Z,15.10
2023-04-18T18:01:50.777Z,13.38
2023-04-18T18:04:17.308Z,14.88
2023-04-18T18:06:54.092Z,14.20
2023-04-18T18:09:20.590Z,14.40
2023-04-18T18:11:46.925Z,14.18
2023-04-18T18:14:13.569Z,14.30
2023-04-18T18:16:40.169Z,13.10
2023-04-18T18:19:09.584Z,14.77
2023-04-18T18:21:36.462Z,14.48
2023-04-18T18:24:03.013Z,14.93
2023-04-18T18:26:29.348Z,17.73
2023-04-18T18:28:55.721Z,14.60
2023-04-18T18:31:24.811Z,15.38
2023-04-18T18:33:52.005Z,13.77
2023-04-18T18:36:18.418Z,13.98
2023-04-18T18:38:44.868Z,14.38
2023-04-18T18:41:11.202Z,14.75
2023-04-18T18:43:37.707Z,16.23
2023-04-18T18:46:04.186Z,15.88
2023-04-18T18:48:32.607Z,22.20
2023-04-18T18:50:58.925Z,14.27
2023-04-18T18:53:25.378Z,15.77
2023-04-18T18:55:51.765Z,17.65
2023-04-18T18:58:18.092Z,14.25
2023-04-18T19:00:45.930Z,15.73
2023-04-18T19:03:12.654Z,15.43
2023-04-18T19:05:39.121Z,14.23
2023-04-18T19:08:06.506Z,14.75
2023-04-18T19:10:32.984Z,13.48
2023-04-18T19:13:00.212Z,16.17
2023-04-18T19:15:26.749Z,14.85
2023-04-18T19:17:53.099Z,14.77
2023-04-18T19:20:19.601Z,13.65
2023-04-18T19:22:46.002Z,12.05
2023-04-18T19:25:12.411Z,11.57
2023-04-18T19:27:38.749Z,15.13
2023-04-18T19:30:05.854Z,11.63
2023-04-18T19:32:32.595Z,10.35
2023-04-18T19:34:59.907Z,11.23
2023-04-18T19:37:26.395Z,11.27
2023-04-18T19:39:52.972Z,12.35
2023-04-18T19:42:19.542Z,11.88
2023-04-18T19:44:45.925Z,14.93
2023-04-18T19:47:12.257Z,12.68
2023-04-18T19:49:38.762Z,16.13
2023-04-18T19:52:06.047Z,11.70
2023-04-18T19:54:35.731Z,13.65
2023-04-18T19:57:02.649Z,13.88
2023-04-18T19:59:28.975Z,14.30
2023-04-18T20:01:56.681Z,13.75
2023-04-18T20:04:25.587Z,14.70
2023-04-18T20:06:53.671Z,13.63
2023-04-18T20:09:20.063Z,13.25
2023-04-18T20:11:47.793Z,15.07
2023-04-18T20:16:42.708Z,13.30
2023-04-18T20:19:12.441Z,13.00
2023-04-18T20:21:39.185Z,12.43
2023-04-18T20:24:06.702Z,12.43
2023-04-18T20:26:33.203Z,12.15
2023-04-18T20:28:59.605Z,11.95
2023-04-18T20:31:25.970Z,14.63
2023-04-18T20:33:52.279Z,12.13
2023-04-18T20:36:18.875Z,12.23
2023-04-18T20:38:45.293Z,12.13
2023-04-18T20:41:17.954Z,12.77
2023-04-18T20:43:45.936Z,12.95
2023-04-18T20:46:12.945Z,16.77
2023-04-18T20:48:40.197Z,12.82
2023-04-18T20:51:06.716Z,13.63
2023-04-18T20:53:33.192Z,15.13
2023-04-18T20:56:02.113Z,15.73
2023-04-18T20:58:29.607Z,12.38
2023-04-18T21:00:55.949Z,11.52
2023-04-18T21:03:22.948Z,11.27
2023-04-18T21:05:49.455Z,13.05
2023-04-18T21:08:15.871Z,15.68
2023-04-18T21:10:42.226Z,10.07
2023-04-18T21:13:09.269Z,12.18
2023-04-18T21:15:36.031Z,13.50
2023-04-18T21:18:02.469Z,12.63
2023-04-18T21:20:29.005Z,10.55
2023-04-18T21:22:55.593Z,12.90
2023-04-18T21:25:22.155Z,12.65
2023-04-18T21:27:50.403Z,11.93
2023-04-18T21:30:16.760Z,11.88
2023-04-18T21:32:43.110Z,12.50
2023-04-18T21:35:09.993Z,11.38
2023-04-18T21:37:36.381Z,10.90
2023-04-18T21:40:04.000Z,13.73
2023-04-18T21:42:30.395Z,11.68
2023-04-18T21:44:56.705Z,12.32
2023-04-18T21:47:23.109Z,12.13
2023-04-18T21:49:49.630Z,11.68
2023-04-18T21:52:15.970Z,12.55
2023-04-18T21:54:42.424Z,12.05
2023-04-18T21:57:08.792Z,14.10
2023-04-18T21:59:35.121Z,11.43
2023-04-18T22:02:01.551Z,12.18
2023-04-18T22:04:29.008Z,10.82
2023-04-18T22:06:55.920Z,15.38
2023-04-18T22:09:22.521Z,12.70
2023-04-18T22:11:51.084Z,13.00
2023-04-18T22:14:20.058Z,12.70
2023-04-18T22:16:46.444Z,11.57
2023-04-18T22:19:14.017Z,14.45
2023-04-18T22:21:40.528Z,11.85
2023-04-18T22:24:07.600Z,12.48
2023-04-18T22:26:34.051Z,12.63
2023-04-18T22:29:00.469Z,12.02
2023-04-18T22:31:27.174Z,12.30
2023-04-18T22:33:53.570Z,13.70
2023-04-18T22:36:19.984Z,11.18
2023-04-18T22:38:46.506Z,15.18
2023-04-18T22:41:12.996Z,11.73
2023-04-18T22:43:39.373Z,15.70
2023-04-18T22:46:05.935Z,12.15
2023-04-18T22:48:34.980Z,11.93
2023-04-18T22:51:01.906Z,13.00
2023-04-18T22:53:28.539Z,12.38
2023-04-18T22:55:54.931Z,14.30
2023-04-18T22:58:21.524Z,12.32
2023-04-18T23:00:47.847Z,11.68
2023-04-18T23:03:14.348Z,11.38
2023-04-18T23:05:41.364Z,12.27
2023-04-18T23:08:08.018Z,13.00
2023-04-18T23:10:34.501Z,11.63
2023-04-18T23:13:00.937Z,11.00
2023-04-18T23:15:27.411Z,10.75
2023-04-18T23:17:53.935Z,13.95
2023-04-18T23:20:21.260Z,12.65
2023-04-18T23:22:51.605Z,14.68
2023-04-18T23:25:19.379Z,12.70
2023-04-18T23:27:46.004Z,13.25
2023-04-18T23:30:12.633Z,11.82
2023-04-18T23:32:39.115Z,12.43
2023-04-18T23:35:06.420Z,10.88
2023-04-18T23:37:33.306Z,13.02
2023-04-18T23:40:00.515Z,13.70
2023-04-18T23:42:27.240Z,14.27
2023-04-18T23:44:54.505Z,13.45
2023-04-18T23:47:21.418Z,13.82
2023-04-18T23:49:47.907Z,14.57
2023-04-18T23:52:14.608Z,13.73
2023-04-18T23:54:41.098Z,13.07
2023-04-18T23:57:07.569Z,13.52
2023-04-18T23:59:33.905Z,15.52
